createdAt,value
2023-01-21T00:02:01.837Z,102582.09
2023-01-21T00:04:30.050Z,102579.66
2023-01-21T00:06:58.210Z,102559.28
2023-01-21T00:09:27.870Z,102571.19
2023-01-21T00:11:55.996Z,102568.84
2023-01-21T00:14:24.019Z,102572.41
2023-01-21T00:16:52.092Z,102574.97
2023-01-21T00:19:20.166Z,102566.47
2023-01-21T00:21:48.287Z,102570.94
2023-01-21T00:24:16.419Z,102575.16
2023-01-21T00:26:46.071Z,102579.50
2023-01-21T00:29:14.136Z,102581.28
2023-01-21T00:31:42.289Z,102583.06
2023-01-21T00:34:11.930Z,102583.06
2023-01-21T00:36:40.003Z,102579.50
2023-01-21T00:39:08.582Z,102586.41
2023-01-21T00:41:37.373Z,102593.38
2023-01-21T00:44:07.392Z,102599.50
2023-01-21T00:46:35.497Z,102601.38
2023-01-21T00:49:03.662Z,102598.81
2023-01-21T00:51:31.635Z,102598.81
2023-01-21T00:53:59.732Z,102598.81
2023-01-21T00:56:27.815Z,102591.94
2023-01-21T00:58:56.185Z,102597.94
2023-01-21T01:01:27.062Z,102607.28
2023-01-21T01:03:55.224Z,102605.72
2023-01-21T01:06:25.164Z,102596.34
2023-01-21T01:08:54.365Z,102608.38
2023-01-21T01:11:22.746Z,102606.91
2023-01-21T01:13:50.812Z,102601.00
2023-01-21T01:16:19.230Z,102600.22
2023-01-21T01:18:49.055Z,102603.78
2023-01-21T01:21:19.337Z,102611.47
2023-01-21T01:23:47.972Z,102609.78
2023-01-21T01:26:18.037Z,102611.47
2023-01-21T01:28:46.837Z,102608.13
2023-01-21T01:31:17.253Z,102604.56
2023-01-21T01:33:45.559Z,102601.22
2023-01-21T01:36:16.985Z,102613.25
2023-01-21T01:38:45.723Z,102612.47
2023-01-21T01:41:17.839Z,102612.56
2023-01-21T01:43:59.226Z,102614.13
2023-01-21T01:46:29.047Z,102612.47
2023-01-21T01:49:03.153Z,102615.13
2023-01-21T01:51:42.336Z,102612.47
2023-01-21T01:54:13.145Z,102603.88
2023-01-21T01:56:46.628Z,102607.22
2023-01-21T01:59:15.868Z,102611.69
2023-01-21T02:01:44.793Z,102617.59
2023-01-21T02:04:18.673Z,102610.78
2023-01-21T02:06:49.251Z,102609.91
2023-01-21T02:09:17.317Z,102620.16
2023-01-21T02:11:45.576Z,102625.28
2023-01-21T02:14:13.833Z,102628.72
2023-01-21T02:17:00.685Z,102619.38
2023-01-21T02:20:22.216Z,102628.72
2023-01-21T02:23:00.394Z,102629.72
2023-01-21T02:25:48.476Z,102630.59
2023-01-21T02:28:44.554Z,102642.63
2023-01-21T02:31:44.499Z,102645.97
2023-01-21T02:34:28.723Z,102648.66
2023-01-21T02:37:06.576Z,102645.09
2023-01-21T02:39:59.331Z,102656.19
2023-01-21T02:42:32.469Z,102656.19
2023-01-21T02:45:10.130Z,102662.22
2023-01-21T02:47:48.788Z,102662.31
2023-01-21T02:50:25.612Z,102657.28
2023-01-21T02:52:58.144Z,102653.78
2023-01-21T02:55:32.712Z,102653.88
2023-01-21T02:58:04.652Z,102655.66
2023-01-21T03:00:42.956Z,102658.28
2023-01-21T03:03:48.182Z,102650.63
2023-01-21T03:06:49.101Z,102650.72
2023-01-21T03:09:24.153Z,102657.53
2023-01-21T03:12:22.699Z,102653.28
2023-01-21T03:15:14.014Z,102654.28
2023-01-21T03:17:46.816Z,102657.84
2023-01-21T03:20:22.334Z,102663.72
2023-01-21T03:22:58.549Z,102667.19
2023-01-21T03:25:29.659Z,102666.38
2023-01-21T03:28:00.546Z,102667.28
2023-01-21T03:30:30.180Z,102675.75
2023-01-21T03:32:59.972Z,102672.41
2023-01-21T03:35:30.805Z,102673.28
2023-01-21T03:38:06.759Z,102677.72
2023-01-21T03:40:39.751Z,102687.97
2023-01-21T03:43:10.639Z,102684.63
2023-01-21T03:45:44.664Z,102689.75
2023-01-21T03:48:20.915Z,102693.09
2023-01-21T03:50:56.626Z,102687.19
2023-01-21T03:53:26.425Z,102690.66
2023-01-21T03:55:54.453Z,102693.31
2023-01-21T03:58:24.884Z,102689.09
2023-01-21T04:00:54.091Z,102684.84
2023-01-21T04:03:22.357Z,102676.16
2023-01-21T04:05:50.415Z,102675.47
2023-01-21T04:08:18.607Z,102669.47
2023-01-21T04:10:48.316Z,102671.25
2023-01-21T04:13:16.408Z,102677.25
2023-01-21T04:15:46.912Z,102675.59
2023-01-21T04:18:15.144Z,102673.03
2023-01-21T04:20:43.414Z,102673.81
2023-01-21T04:23:11.439Z,102678.16
2023-01-21T04:25:39.504Z,102671.25
2023-01-21T04:28:08.965Z,102675.59
2023-01-21T04:30:39.829Z,102673.03
2023-01-21T04:33:08.198Z,102686.72
2023-01-21T04:35:36.526Z,102676.47
2023-01-21T04:38:06.355Z,102682.38
2023-01-21T04:40:34.471Z,102668.78
2023-01-21T04:43:02.545Z,102673.81
2023-01-21T04:45:32.033Z,102672.13
2023-01-21T04:47:59.998Z,102679.03
2023-01-21T04:50:28.168Z,102673.13
2023-01-21T04:52:56.559Z,102673.22
2023-01-21T04:55:26.294Z,102675.78
2023-01-21T04:57:54.643Z,102677.56
2023-01-21T05:00:23.537Z,102675.91
2023-01-21T05:02:53.192Z,102670.66
2023-01-21T05:05:21.217Z,102674.13
2023-01-21T05:07:49.509Z,102672.34
2023-01-21T05:10:19.248Z,102675.78
2023-01-21T05:12:48.575Z,102668.09
2023-01-21T05:15:16.790Z,102676.69
2023-01-21T05:17:45.116Z,102672.34
2023-01-21T05:20:14.875Z,102672.44
2023-01-21T05:22:43.099Z,102669.88
2023-01-21T05:25:11.382Z,102673.22
2023-01-21T05:27:39.506Z,102665.53
2023-01-21T05:30:09.057Z,102670.66
2023-01-21T05:32:37.549Z,102677.56
2023-01-21T05:35:06.263Z,102676.00
2023-01-21T05:37:35.716Z,102670.88
2023-01-21T05:40:06.978Z,102676.00
2023-01-21T05:42:35.100Z,102675.22
2023-01-21T05:45:03.173Z,102677.88
2023-01-21T05:47:32.322Z,102674.53
2023-01-21T05:50:00.354Z,102674.53
2023-01-21T05:52:28.694Z,102672.97
2023-01-21T05:55:02.122Z,102682.44
2023-01-21T05:57:31.484Z,102677.31
2023-01-21T05:59:59.959Z,102679.97
2023-01-21T06:02:28.409Z,102675.72
2023-01-21T06:04:56.501Z,102676.63
2023-01-21T06:07:24.572Z,102674.84
2023-01-21T06:09:53.267Z,102675.72
2023-01-21T06:12:24.625Z,102678.28
2023-01-21T06:14:52.945Z,102680.84
2023-01-21T06:17:21.040Z,102686.78
2023-01-21T06:19:49.264Z,102684.31
2023-01-21T06:22:18.144Z,102692.00
2023-01-21T06:24:46.613Z,102686.88
2023-01-21T06:27:14.893Z,102690.22
2023-01-21T06:29:44.308Z,102698.78
2023-01-21T06:32:12.362Z,102694.56
2023-01-21T06:34:44.106Z,102697.13
2023-01-21T06:37:13.186Z,102699.69
2023-01-21T06:39:41.473Z,102694.56
2023-01-21T06:42:11.544Z,102705.69
2023-01-21T06:44:39.610Z,102698.91
2023-01-21T06:47:09.475Z,102703.25
2023-01-21T06:49:37.995Z,102713.50
2023-01-21T06:52:06.578Z,102709.25
2023-01-21T06:54:34.705Z,102711.03
2023-01-21T06:57:02.753Z,102710.13
2023-01-21T06:59:30.901Z,102708.47
2023-01-21T07:01:59.327Z,102715.25
2023-01-21T07:04:30.589Z,102717.94
2023-01-21T07:06:58.652Z,102722.16
2023-01-21T07:09:26.734Z,102724.63
2023-01-21T07:11:55.571Z,102723.94
2023-01-21T07:14:23.583Z,102731.63
2023-01-21T07:16:51.656Z,102735.97
2023-01-21T07:19:19.999Z,102722.38
2023-01-21T07:21:49.744Z,102720.69
2023-01-21T07:24:17.976Z,102722.47
2023-01-21T07:26:46.350Z,102723.38
2023-01-21T07:29:14.363Z,102727.81
2023-01-21T07:31:42.489Z,102715.00
2023-01-21T07:34:10.616Z,102727.13
2023-01-21T07:36:38.749Z,102728.81
2023-01-21T07:39:08.304Z,102732.25
2023-01-21T07:41:55.694Z,102728.81
2023-01-21T07:44:23.803Z,102738.28
2023-01-21T07:46:51.966Z,102727.13
2023-01-21T07:49:20.046Z,102723.00
2023-01-21T07:51:48.640Z,102730.69
2023-01-21T07:54:18.186Z,102725.56
2023-01-21T07:56:52.078Z,102725.56
2023-01-21T07:59:20.227Z,102729.91
2023-01-21T08:01:48.595Z,102732.56
2023-01-21T08:04:16.741Z,102731.78
2023-01-21T08:06:44.900Z,102735.34
2023-01-21T08:09:13.028Z,102738.78
2023-01-21T08:11:44.783Z,102742.34
2023-01-21T08:14:13.109Z,102741.44
2023-01-21T08:16:41.452Z,102739.00
2023-01-21T08:19:09.941Z,102745.91
2023-01-21T08:21:39.052Z,102746.88
2023-01-21T08:24:08.017Z,102749.66
2023-01-21T08:26:35.992Z,102754.09
2023-01-21T08:29:05.601Z,102741.50
2023-01-21T08:31:35.163Z,102752.84
2023-01-21T08:34:03.226Z,102745.16
2023-01-21T08:36:31.252Z,102752.06
2023-01-21T08:39:02.018Z,102755.41
2023-01-21T08:41:30.146Z,102752.84
2023-01-21T08:43:58.178Z,102754.63
2023-01-21T08:46:27.750Z,102759.75
2023-01-21T08:48:56.008Z,102767.44
2023-01-21T08:51:24.170Z,102762.31
2023-01-21T08:54:24.751Z,102765.00
2023-01-21T08:56:52.737Z,102768.50
2023-01-21T08:59:28.035Z,102769.22
2023-01-21T09:01:58.080Z,102767.66
2023-01-21T09:04:26.227Z,102766.78
2023-01-21T09:06:55.280Z,102769.44
2023-01-21T09:09:23.341Z,102767.78
2023-01-21T09:11:55.251Z,102766.22
2023-01-21T09:14:23.292Z,102767.00
2023-01-21T09:16:52.074Z,102758.53
2023-01-21T09:19:22.882Z,102765.41
2023-01-21T09:21:52.456Z,102766.31
2023-01-21T09:24:21.818Z,102762.97
2023-01-21T09:26:49.835Z,102764.75
2023-01-21T09:29:19.135Z,102758.03
2023-01-21T09:31:47.304Z,102758.03
2023-01-21T09:34:15.382Z,102764.94
2023-01-21T09:36:44.892Z,102761.69
2023-01-21T09:39:13.166Z,102764.38
2023-01-21T09:41:44.410Z,102761.91
2023-01-21T09:44:23.042Z,102762.91
2023-01-21T09:46:56.739Z,102769.03
2023-01-21T09:49:29.329Z,102774.41
2023-01-21T09:52:05.860Z,102771.06
2023-01-21T09:54:36.769Z,102778.19
2023-01-21T09:57:52.567Z,102783.63
2023-01-21T10:00:42.505Z,102780.38
2023-01-21T10:03:19.702Z,102782.16
2023-01-21T10:06:25.347Z,102779.81
2023-01-21T10:09:13.919Z,102785.19
2023-01-21T10:11:53.072Z,102780.38
2023-01-21T10:14:38.696Z,102778.88
2023-01-21T10:17:14.987Z,102794.50
2023-01-21T10:19:49.150Z,102781.75
2023-01-21T10:22:23.159Z,102788.19
2023-01-21T10:24:57.636Z,102790.84
2023-01-21T10:27:28.158Z,102801.91
2023-01-21T10:30:03.669Z,102795.09
2023-01-21T10:32:35.567Z,102797.75
2023-01-21T10:35:03.807Z,102799.53
2023-01-21T10:37:36.324Z,102796.19
2023-01-21T10:40:17.446Z,102798.16
2023-01-21T10:43:00.636Z,102794.13
2023-01-21T10:45:37.777Z,102794.13
2023-01-21T10:48:13.927Z,102794.13
2023-01-21T10:50:50.767Z,102802.69
2023-01-21T10:53:24.711Z,102802.78
2023-01-21T10:56:05.735Z,102797.75
2023-01-21T10:58:38.115Z,102801.41
2023-01-21T11:01:11.289Z,102811.00
2023-01-21T11:03:43.823Z,102815.41
2023-01-21T11:06:14.668Z,102806.06
2023-01-21T11:08:45.596Z,102809.59
2023-01-21T11:11:22.435Z,102811.38
2023-01-21T11:13:50.460Z,102816.50
2023-01-21T11:16:32.814Z,102812.28
2023-01-21T11:19:03.346Z,102815.63
2023-01-21T11:21:31.359Z,102809.59
2023-01-21T11:24:01.281Z,102812.94
2023-01-21T11:26:32.992Z,102822.34
2023-01-21T11:29:08.322Z,102813.16
2023-01-21T11:31:37.120Z,102810.78
2023-01-21T11:34:08.326Z,102810.09
2023-01-21T11:36:36.591Z,102801.88
2023-01-21T11:39:08.313Z,102804.81
2023-01-21T11:41:38.006Z,102799.47
2023-01-21T11:44:11.715Z,102794.78
2023-01-21T11:46:45.422Z,102789.16
2023-01-21T11:49:28.561Z,102784.13
2023-01-21T11:52:16.797Z,102781.63
2023-01-21T11:54:45.859Z,102785.09
2023-01-21T11:57:36.344Z,102782.72
2023-01-21T12:00:18.716Z,102776.66
2023-01-21T12:02:50.892Z,102782.78
2023-01-21T12:05:28.307Z,102781.00
2023-01-21T12:07:59.706Z,102769.94
2023-01-21T12:10:31.318Z,102772.78
2023-01-21T12:13:20.379Z,102778.41
2023-01-21T12:16:20.407Z,102775.41
2023-01-21T12:19:29.797Z,102777.03
2023-01-21T12:22:31.490Z,102774.09
2023-01-21T12:25:17.869Z,102771.72
2023-01-21T12:27:57.700Z,102774.66
2023-01-21T12:30:40.540Z,102770.56
2023-01-21T12:33:17.918Z,102772.06
2023-01-21T12:35:51.770Z,102774.50
2023-01-21T12:38:24.171Z,102768.44
2023-01-21T12:40:59.429Z,102766.66
2023-01-21T12:43:33.021Z,102761.09
2023-01-21T12:46:10.793Z,102763.28
2023-01-21T12:48:44.340Z,102753.63
2023-01-21T12:51:20.061Z,102759.34
2023-01-21T12:54:32.207Z,102758.47
2023-01-21T12:57:11.063Z,102755.63
2023-01-21T12:59:44.470Z,102756.50
2023-01-21T13:02:28.763Z,102748.91
2023-01-21T13:05:02.841Z,102760.84
2023-01-21T13:07:39.498Z,102760.34
2023-01-21T13:10:16.860Z,102753.16
2023-01-21T13:12:51.182Z,102743.88
2023-01-21T13:15:22.226Z,102741.47
2023-01-21T13:17:56.872Z,102746.59
2023-01-21T13:20:28.412Z,102741.47
2023-01-21T13:23:07.475Z,102733.38
2023-01-21T13:25:51.237Z,102750.25
2023-01-21T13:28:28.236Z,102752.63
2023-01-21T13:31:04.214Z,102744.75
2023-01-21T13:33:43.585Z,102741.97
2023-01-21T13:36:43.406Z,102745.16
2023-01-21T13:39:22.945Z,102738.78
2023-01-21T13:42:04.374Z,102744.72
2023-01-21T13:45:06.537Z,102744.88
2023-01-21T13:47:54.573Z,102749.94
2023-01-21T13:50:38.982Z,102746.22
2023-01-21T13:53:39.901Z,102747.00
2023-01-21T13:56:30.268Z,102747.16
2023-01-21T13:59:04.206Z,102744.78
2023-01-21T14:01:42.302Z,102737.44
2023-01-21T14:04:15.440Z,102733.28
2023-01-21T14:06:56.226Z,102735.25
2023-01-21T14:09:28.893Z,102738.50
2023-01-21T14:12:12.143Z,102742.50
2023-01-21T14:15:10.332Z,102736.00
2023-01-21T14:18:05.499Z,102736.53
2023-01-21T14:21:15.954Z,102740.31
2023-01-21T14:24:06.949Z,102747.94
2023-01-21T14:26:55.518Z,102742.72
2023-01-21T14:29:34.561Z,102742.44
2023-01-21T14:32:13.689Z,102753.41
2023-01-21T14:34:51.071Z,102749.66
2023-01-21T14:37:28.995Z,102741.75
2023-01-21T14:40:09.780Z,102749.47
2023-01-21T14:42:43.269Z,102747.00
2023-01-21T14:45:13.135Z,102754.81
2023-01-21T14:47:50.189Z,102742.75
2023-01-21T14:50:48.759Z,102753.09
2023-01-21T14:53:27.136Z,102741.44
2023-01-21T14:56:16.905Z,102747.28
2023-01-21T14:58:49.219Z,102748.09
2023-01-21T15:01:38.023Z,102756.59
2023-01-21T15:04:09.671Z,102749.47
2023-01-21T15:06:41.893Z,102745.94
2023-01-21T15:09:22.768Z,102752.56
2023-01-21T15:11:57.667Z,102749.31
2023-01-21T15:14:30.643Z,102755.13
2023-01-21T15:16:58.912Z,102754.22
2023-01-21T15:19:30.283Z,102753.38
2023-01-21T15:22:23.281Z,102752.47
2023-01-21T15:25:20.675Z,102757.72
2023-01-21T15:28:38.395Z,102758.38
2023-01-21T15:31:10.986Z,102758.38
2023-01-21T15:33:46.111Z,102755.72
2023-01-21T15:36:27.962Z,102755.66
2023-01-21T15:39:04.263Z,102766.50
2023-01-21T15:41:44.919Z,102755.06
2023-01-21T15:44:38.127Z,102752.13
2023-01-21T15:47:20.393Z,102755.47
2023-01-21T15:49:59.182Z,102757.63
2023-01-21T15:52:46.352Z,102759.25
2023-01-21T15:55:29.653Z,102761.53
2023-01-21T15:58:11.498Z,102768.94
2023-01-21T16:00:49.724Z,102761.81
2023-01-21T16:03:26.498Z,102762.41
2023-01-21T16:06:03.099Z,102757.97
2023-01-21T16:08:49.519Z,102753.72
2023-01-21T16:11:35.919Z,102757.78
2023-01-21T16:14:16.661Z,102754.13
2023-01-21T16:16:55.118Z,102755.91
2023-01-21T16:19:35.285Z,102759.25
2023-01-21T16:22:07.776Z,102757.47
2023-01-21T16:24:44.786Z,102759.06
2023-01-21T16:27:21.389Z,102753.75
2023-01-21T16:29:49.743Z,102756.09
2023-01-21T16:32:20.335Z,102758.66
2023-01-21T16:34:50.407Z,102745.63
2023-01-21T16:37:21.507Z,102754.81
2023-01-21T16:39:49.852Z,102746.16
2023-01-21T16:42:27.683Z,102752.75
2023-01-21T16:44:56.109Z,102751.16
2023-01-21T16:47:27.456Z,102754.31
2023-01-21T16:49:58.765Z,102753.41
2023-01-21T16:52:28.646Z,102760.31
2023-01-21T16:54:57.508Z,102771.50
2023-01-21T16:57:34.130Z,102775.72
2023-01-21T17:00:22.376Z,102771.50
2023-01-21T17:02:50.743Z,102777.50
2023-01-21T17:05:38.242Z,102773.28
2023-01-21T17:08:12.413Z,102764.59
2023-01-21T17:10:53.927Z,102761.13
2023-01-21T17:13:23.614Z,102770.59
2023-01-21T17:15:57.778Z,102773.06
2023-01-21T17:18:35.538Z,102764.59
2023-01-21T17:21:10.990Z,102774.84
2023-01-21T17:23:50.396Z,102769.72
2023-01-21T17:26:23.006Z,102761.25
2023-01-21T17:29:09.531Z,102754.09
2023-01-21T17:31:39.454Z,102763.59
2023-01-21T17:34:21.209Z,102766.16
2023-01-21T17:36:52.610Z,102766.94
2023-01-21T17:39:54.509Z,102769.72
2023-01-21T17:42:24.967Z,102761.03
2023-01-21T17:44:55.724Z,102755.88
2023-01-21T17:47:28.149Z,102767.03
2023-01-21T17:50:00.167Z,102761.81
2023-01-21T17:52:30.832Z,102753.41
2023-01-21T17:55:26.767Z,102757.66
2023-01-21T17:57:55.915Z,102757.66
2023-01-21T18:00:35.968Z,102750.75
2023-01-21T18:03:04.889Z,102748.19
2023-01-21T18:05:33.855Z,102759.63
2023-01-21T18:08:16.274Z,102756.09
2023-01-21T18:10:45.610Z,102765.66
2023-01-21T18:13:14.496Z,102768.31
2023-01-21T18:15:44.364Z,102770.03
2023-01-21T18:18:18.411Z,102768.53
2023-01-21T18:20:50.528Z,102764.28
2023-01-21T18:23:20.953Z,102765.28
2023-01-21T18:25:52.560Z,102774.75
2023-01-21T18:28:23.440Z,102773.97
2023-01-21T18:30:52.757Z,102766.44
2023-01-21T18:33:22.320Z,102780.28
2023-01-21T18:35:52.739Z,102776.16
2023-01-21T18:38:27.685Z,102774.44
2023-01-21T18:40:56.616Z,102762.53
2023-01-21T18:43:25.047Z,102766.75
2023-01-21T18:45:54.653Z,102769.44
2023-01-21T18:48:28.921Z,102766.88
2023-01-21T18:50:57.589Z,102761.81
2023-01-21T18:53:28.163Z,102766.97
2023-01-21T18:55:56.389Z,102776.44
2023-01-21T18:58:24.739Z,102779.09
2023-01-21T19:00:52.952Z,102769.63
2023-01-21T19:03:23.269Z,102775.66
2023-01-21T19:05:52.865Z,102773.19
2023-01-21T19:08:28.133Z,102777.63
2023-01-21T19:10:57.772Z,102769.03
2023-01-21T19:13:26.081Z,102773.47
2023-01-21T19:15:54.717Z,102777.03
2023-01-21T19:18:23.076Z,102785.59
2023-01-21T19:20:51.237Z,102782.25
2023-01-21T19:23:20.934Z,102783.13
2023-01-21T19:25:53.365Z,102782.34
2023-01-21T19:28:23.960Z,102779.00
2023-01-21T19:30:55.574Z,102793.69
2023-01-21T19:33:24.386Z,102791.03
2023-01-21T19:36:01.921Z,102792.81
2023-01-21T19:38:30.344Z,102806.66
2023-01-21T19:40:58.461Z,102793.81
2023-01-21T19:43:28.245Z,102782.75
2023-01-21T19:45:59.149Z,102792.81
2023-01-21T19:48:29.424Z,102796.38
2023-01-21T19:50:57.412Z,102780.28
2023-01-21T19:53:25.565Z,102785.34
2023-01-21T19:55:53.749Z,102776.63
2023-01-21T19:58:25.448Z,102768.94
2023-01-21T20:00:55.611Z,102759.38
2023-01-21T20:03:24.192Z,102768.84
2023-01-21T20:05:54.136Z,102770.50
2023-01-21T20:08:25.986Z,102775.63
2023-01-21T20:10:56.107Z,102762.00
2023-01-21T20:13:24.475Z,102756.25
2023-01-21T20:15:54.539Z,102752.91
2023-01-21T20:18:24.771Z,102755.88
2023-01-21T20:20:53.801Z,102753.50
2023-01-21T20:23:25.337Z,102748.47
2023-01-21T20:25:59.509Z,102747.00
2023-01-21T20:28:35.065Z,102736.88
2023-01-21T20:31:07.190Z,102730.25
2023-01-21T20:33:37.063Z,102733.81
2023-01-21T20:36:07.341Z,102736.47
2023-01-21T20:38:38.589Z,102738.25
2023-01-21T20:41:07.753Z,102736.66
2023-01-21T20:43:37.551Z,102723.81
2023-01-21T20:46:12.743Z,102720.38
2023-01-21T20:48:43.478Z,102719.47
2023-01-21T20:51:12.995Z,102723.91
2023-01-21T20:53:41.413Z,102742.81
2023-01-21T20:56:20.350Z,102755.81
2023-01-21T20:58:49.140Z,102762.72
2023-01-21T21:01:25.134Z,102758.50
2023-01-21T21:03:54.026Z,102762.84
2023-01-21T21:06:25.223Z,102757.72
2023-01-21T21:08:53.848Z,102756.81
2023-01-21T21:11:23.471Z,102763.72
2023-01-21T21:13:52.547Z,102768.16
2023-01-21T21:16:24.711Z,102758.00
2023-01-21T21:18:53.240Z,102758.00
2023-01-21T21:21:23.868Z,102765.78
2023-01-21T21:23:53.170Z,102758.16
2023-01-21T21:26:23.698Z,102753.03
2023-01-21T21:28:54.944Z,102756.38
2023-01-21T21:31:25.589Z,102753.09
2023-01-21T21:33:53.895Z,102751.44
2023-01-21T21:36:23.970Z,102752.31
2023-01-21T21:38:55.748Z,102757.56
2023-01-21T21:41:43.191Z,102748.97
2023-01-21T21:44:12.351Z,102735.25
2023-01-21T21:46:59.929Z,102733.38
2023-01-21T21:49:28.930Z,102734.97
2023-01-21T21:51:57.090Z,102740.69
2023-01-21T21:54:25.292Z,102737.25
2023-01-21T21:56:57.015Z,102748.31
2023-01-21T21:59:25.166Z,102755.44
2023-01-21T22:01:54.923Z,102741.59
2023-01-21T22:04:23.817Z,102744.56
2023-01-21T22:06:52.253Z,102736.66
2023-01-21T22:09:22.111Z,102738.06
2023-01-21T22:11:50.314Z,102732.16
2023-01-21T22:14:18.426Z,102741.28
2023-01-21T22:16:46.828Z,102736.00
2023-01-21T22:19:16.450Z,102733.38
2023-01-21T22:21:45.885Z,102725.19
2023-01-21T22:24:15.755Z,102728.13
2023-01-21T22:26:44.120Z,102732.88
2023-01-21T22:29:12.861Z,102724.97
2023-01-21T22:31:41.063Z,102720.66
2023-01-21T22:34:09.266Z,102724.72
2023-01-21T22:36:38.893Z,102735.00
2023-01-21T22:39:08.034Z,102741.28
2023-01-21T22:41:37.579Z,102736.66
2023-01-21T22:44:06.635Z,102733.78
2023-01-21T22:46:34.921Z,102747.22
2023-01-21T22:49:04.285Z,102758.78
2023-01-21T22:51:32.664Z,102745.53
2023-01-21T22:54:02.298Z,102740.69
2023-01-21T22:56:50.368Z,102746.00
2023-01-21T22:59:19.517Z,102752.34
2023-01-21T23:01:48.894Z,102752.72
2023-01-21T23:04:20.229Z,102745.00
2023-01-21T23:06:52.359Z,102750.50
2023-01-21T23:09:21.992Z,102751.31
2023-01-21T23:11:52.644Z,102758.50
2023-01-21T23:14:21.207Z,102757.84
2023-01-21T23:16:49.546Z,102760.56
2023-01-21T23:19:17.645Z,102762.34
2023-01-21T23:21:46.090Z,102764.13
2023-01-21T23:24:14.526Z,102767.69
2023-01-21T23:26:44.056Z,102765.13
2023-01-21T23:29:13.420Z,102766.09
2023-01-21T23:31:41.708Z,102763.53
2023-01-21T23:34:14.014Z,102762.66
2023-01-21T23:36:42.233Z,102750.88
2023-01-21T23:39:11.016Z,102761.16
2023-01-21T23:41:39.300Z,102762.16
2023-01-21T23:44:10.766Z,102762.16
2023-01-21T23:46:39.135Z,102757.78
2023-01-21T23:49:07.465Z,102755.44
2023-01-21T23:51:36.212Z,102759.75
2023-01-21T23:54:04.420Z,102754.72
2023-01-21T23:56:32.527Z,102739.38
2023-01-21T23:59:02.712Z,102748.88
